createdAt,value
2023-01-02T00:01:44.248Z,106
2023-01-02T00:04:14.291Z,107
2023-01-02T00:06:44.503Z,108
2023-01-02T00:09:14.825Z,113
2023-01-02T00:11:44.823Z,110
2023-01-02T00:14:14.957Z,110
2023-01-02T00:16:45.118Z,117
2023-01-02T00:19:15.323Z,120
2023-01-02T00:21:45.506Z,123
2023-01-02T00:24:15.661Z,129
2023-01-02T00:26:45.794Z,120
2023-01-02T00:29:16.015Z,112
2023-01-02T00:31:46.272Z,116
2023-01-02T00:34:16.332Z,110
2023-01-02T00:36:46.474Z,108
2023-01-02T00:39:16.510Z,111
2023-01-02T00:41:46.751Z,106
2023-01-02T00:44:16.932Z,120
2023-01-02T00:46:47.225Z,108
2023-01-02T00:49:17.182Z,108
2023-01-02T00:51:47.295Z,118
2023-01-02T00:54:17.549Z,115
2023-01-02T00:56:47.666Z,112
2023-01-02T00:59:17.863Z,101
2023-01-02T01:01:48.194Z,108
2023-01-02T01:04:18.336Z,104
2023-01-02T01:06:48.518Z,110
2023-01-02T01:09:18.712Z,116
2023-01-02T01:11:48.850Z,116
2023-01-02T01:14:19.018Z,113
2023-01-02T01:16:49.172Z,102
2023-01-02T01:19:19.294Z,108
2023-01-02T01:21:49.587Z,112
2023-01-02T01:24:23.348Z,110
2023-01-02T01:26:53.554Z,99
2023-01-02T01:29:23.425Z,115
2023-01-02T01:31:53.730Z,112
2023-01-02T01:34:23.627Z,111
2023-01-02T01:36:53.798Z,107
2023-01-02T01:39:23.889Z,106
2023-01-02T01:41:54.051Z,101
2023-01-02T01:44:24.233Z,109
2023-01-02T01:46:54.544Z,104
2023-01-02T01:49:24.667Z,96
2023-01-02T01:51:54.483Z,107
2023-01-02T01:54:24.540Z,104
2023-01-02T01:56:54.411Z,112
2023-01-02T01:59:24.613Z,108
2023-01-02T02:01:54.957Z,104
2023-01-02T02:04:24.929Z,104
2023-01-02T02:06:55.069Z,110
2023-01-02T02:09:24.964Z,97
2023-01-02T02:11:55.208Z,100
2023-01-02T02:14:25.422Z,104
2023-01-02T02:16:55.468Z,101
2023-01-02T02:19:25.553Z,99
2023-01-02T02:21:55.670Z,103
2023-01-02T02:24:25.853Z,102
2023-01-02T02:26:55.794Z,96
2023-01-02T02:29:25.969Z,109
2023-01-02T02:31:56.034Z,103
2023-01-02T02:34:26.168Z,100
2023-01-02T02:36:56.276Z,104
2023-01-02T02:39:26.430Z,97
2023-01-02T02:41:56.497Z,113
2023-01-02T02:44:26.646Z,112
2023-01-02T02:46:56.867Z,102
2023-01-02T02:49:26.895Z,93
2023-01-02T02:51:57.105Z,88
2023-01-02T02:54:27.314Z,100
2023-01-02T02:56:57.475Z,88
2023-01-02T02:59:27.573Z,90
2023-01-02T03:01:57.809Z,90
2023-01-02T03:04:27.893Z,93
2023-01-02T03:06:58.064Z,99
2023-01-02T03:09:28.587Z,97
2023-01-02T03:11:58.634Z,95
2023-01-02T03:14:28.709Z,94
2023-01-02T03:16:58.877Z,93
2023-01-02T03:19:28.932Z,91
2023-01-02T03:21:59.104Z,86
2023-01-02T03:24:29.374Z,86
2023-01-02T03:26:59.483Z,90
2023-01-02T03:29:29.631Z,79
2023-01-02T03:31:59.765Z,92
2023-01-02T03:34:29.808Z,93
2023-01-02T03:37:00.043Z,81
2023-01-02T03:39:30.198Z,84
2023-01-02T03:42:00.403Z,81
2023-01-02T03:44:30.542Z,90
2023-01-02T03:47:00.705Z,88
2023-01-02T03:49:31.019Z,92
2023-01-02T03:52:00.973Z,94
2023-01-02T03:54:30.911Z,96
2023-01-02T03:57:01.066Z,93
2023-01-02T03:59:31.337Z,87
2023-01-02T04:02:01.519Z,91
2023-01-02T04:04:31.632Z,90
2023-01-02T04:07:01.854Z,102
2023-01-02T04:09:32.180Z,86
2023-01-02T04:12:02.238Z,98
2023-01-02T04:14:32.433Z,84
2023-01-02T04:17:02.346Z,76
2023-01-02T04:19:32.202Z,79
2023-01-02T04:22:02.170Z,75
2023-01-02T04:24:32.341Z,69
2023-01-02T04:27:02.391Z,77
2023-01-02T04:29:32.618Z,78
2023-01-02T04:32:02.916Z,74
2023-01-02T04:34:33.078Z,76
2023-01-02T04:37:03.374Z,75
2023-01-02T04:39:33.552Z,80
2023-01-02T04:42:03.714Z,76
2023-01-02T04:44:33.825Z,83
2023-01-02T04:47:03.993Z,83
2023-01-02T04:49:34.134Z,82
2023-01-02T04:52:04.196Z,85
2023-01-02T04:54:34.483Z,94
2023-01-02T04:57:04.661Z,94
2023-01-02T04:59:34.793Z,76
2023-01-02T05:02:05.001Z,77
2023-01-02T05:04:35.079Z,77
2023-01-02T05:07:05.308Z,71
2023-01-02T05:09:35.466Z,68
2023-01-02T05:12:05.964Z,76
2023-01-02T05:14:35.878Z,76
2023-01-02T05:17:06.091Z,82
2023-01-02T05:19:36.312Z,72
2023-01-02T05:22:06.321Z,68
2023-01-02T05:24:36.467Z,68
2023-01-02T05:27:06.328Z,68
2023-01-02T05:29:36.413Z,74
2023-01-02T05:32:06.408Z,68
2023-01-02T05:34:36.307Z,72
2023-01-02T05:37:06.502Z,79
2023-01-02T05:39:36.638Z,68
2023-01-02T05:42:06.858Z,65
2023-01-02T05:44:36.919Z,80
2023-01-02T05:47:09.026Z,80
2023-01-02T05:49:37.208Z,76
2023-01-02T05:52:07.465Z,76
2023-01-02T05:54:37.531Z,87
2023-01-02T05:57:07.640Z,80
2023-01-02T05:59:37.858Z,76
2023-01-02T06:02:08.234Z,73
2023-01-02T06:04:38.260Z,68
2023-01-02T06:07:08.465Z,77
2023-01-02T06:09:38.450Z,78
2023-01-02T06:12:08.524Z,84
2023-01-02T06:14:38.287Z,97
2023-01-02T06:17:08.344Z,94
2023-01-02T06:19:38.240Z,79
2023-01-02T06:22:08.193Z,72
2023-01-02T06:24:38.326Z,71
2023-01-02T06:27:08.467Z,74
2023-01-02T06:29:38.634Z,67
2023-01-02T06:32:08.690Z,68
2023-01-02T06:34:38.955Z,66
2023-01-02T06:37:10.129Z,68
2023-01-02T06:39:39.413Z,68
2023-01-02T06:42:09.634Z,64
2023-01-02T06:44:39.596Z,64
2023-01-02T06:47:09.487Z,64
2023-01-02T06:49:39.622Z,76
2023-01-02T06:52:09.625Z,64
2023-01-02T06:54:39.966Z,64
2023-01-02T06:57:10.010Z,68
2023-01-02T06:59:39.975Z,68
2023-01-02T07:02:10.174Z,64
2023-01-02T07:04:40.079Z,64
2023-01-02T07:07:10.204Z,66
2023-01-02T07:09:40.252Z,68
2023-01-02T07:12:10.399Z,64
2023-01-02T07:14:40.512Z,74
2023-01-02T07:17:10.772Z,76
2023-01-02T07:19:40.870Z,75
2023-01-02T07:22:11.116Z,67
2023-01-02T07:24:41.279Z,75
2023-01-02T07:27:11.457Z,65
2023-01-02T07:29:41.651Z,66
2023-01-02T07:32:11.908Z,68
2023-01-02T07:34:42.107Z,64
2023-01-02T07:37:12.314Z,62
2023-01-02T07:39:42.321Z,60
2023-01-02T07:42:12.578Z,56
2023-01-02T07:44:42.842Z,60
2023-01-02T07:47:12.869Z,61
2023-01-02T07:49:42.910Z,62
2023-01-02T07:52:13.014Z,63
2023-01-02T07:54:43.155Z,64
2023-01-02T07:57:13.868Z,64
2023-01-02T07:59:44.149Z,72
2023-01-02T08:02:14.333Z,65
2023-01-02T08:04:44.017Z,66
2023-01-02T08:07:14.294Z,62
2023-01-02T08:09:44.472Z,67
2023-01-02T08:12:14.504Z,64
2023-01-02T08:14:44.614Z,60
2023-01-02T08:17:14.747Z,64
2023-01-02T08:19:44.926Z,73
2023-01-02T08:22:15.110Z,72
2023-01-02T08:24:45.155Z,77
2023-01-02T08:27:15.415Z,75
2023-01-02T08:29:45.561Z,77
2023-01-02T08:32:15.770Z,77
2023-01-02T08:34:46.741Z,81
2023-01-02T08:37:17.033Z,74
2023-01-02T08:39:47.240Z,72
2023-01-02T08:42:17.935Z,86
2023-01-02T08:44:48.077Z,85
2023-01-02T08:47:18.837Z,88
2023-01-02T08:49:48.533Z,90
2023-01-02T08:52:18.772Z,96
2023-01-02T08:54:49.983Z,95
2023-01-02T08:57:20.860Z,96
2023-01-02T08:59:51.150Z,117
2023-01-02T09:02:22.136Z,114
2023-01-02T09:04:52.100Z,112
2023-01-02T09:07:22.799Z,125
2023-01-02T09:09:52.944Z,127
2023-01-02T09:12:23.079Z,117
2023-01-02T09:14:53.264Z,112
2023-01-02T09:17:23.324Z,113
2023-01-02T09:19:53.329Z,112
2023-01-02T09:22:24.050Z,108
2023-01-02T09:24:54.314Z,108
2023-01-02T09:27:24.173Z,104
2023-01-02T09:29:55.004Z,100
2023-01-02T09:32:24.909Z,102
2023-01-02T09:34:54.796Z,108
2023-01-02T09:37:24.901Z,118
2023-01-02T09:39:54.794Z,124
2023-01-02T09:42:26.196Z,137
2023-01-02T09:44:56.186Z,145
2023-01-02T09:47:26.265Z,123
2023-01-02T09:49:56.510Z,111
2023-01-02T09:52:26.788Z,110
2023-01-02T09:54:57.639Z,115
2023-01-02T09:57:27.861Z,135
2023-01-02T09:59:58.665Z,136
2023-01-02T10:02:28.803Z,138
2023-01-02T10:04:58.983Z,133
2023-01-02T10:07:29.285Z,128
2023-01-02T10:09:59.565Z,128
2023-01-02T10:12:29.752Z,124
2023-01-02T10:15:02.894Z,130
2023-01-02T10:17:33.065Z,127
2023-01-02T10:20:03.990Z,128
2023-01-02T10:22:34.210Z,130
2023-01-02T10:25:04.134Z,120
2023-01-02T10:27:35.097Z,114
2023-01-02T10:30:04.855Z,103
2023-01-02T10:32:35.800Z,90
2023-01-02T10:35:05.965Z,79
2023-01-02T10:37:36.190Z,94
2023-01-02T10:40:06.387Z,92
2023-01-02T10:42:37.190Z,87
2023-01-02T10:45:07.520Z,84
2023-01-02T10:47:37.728Z,79
2023-01-02T10:50:07.838Z,67
2023-01-02T10:52:38.029Z,64
2023-01-02T10:55:08.903Z,61
2023-01-02T10:57:39.643Z,64
2023-01-02T11:00:09.926Z,67
2023-01-02T11:02:40.165Z,71
2023-01-02T11:05:10.435Z,69
2023-01-02T11:07:41.157Z,70
2023-01-02T11:10:11.269Z,75
2023-01-02T11:12:41.464Z,80
2023-01-02T11:15:12.405Z,82
2023-01-02T11:17:43.192Z,79
2023-01-02T11:20:13.210Z,78
2023-01-02T11:22:43.402Z,72
2023-01-02T11:25:13.538Z,72
2023-01-02T11:27:44.441Z,76
2023-01-02T11:30:14.531Z,72
2023-01-02T11:32:45.468Z,53
2023-01-02T11:35:15.719Z,54
2023-01-02T11:37:45.909Z,63
2023-01-02T11:40:15.653Z,70
2023-01-02T11:42:45.693Z,70
2023-01-02T11:45:15.804Z,62
2023-01-02T11:47:46.094Z,59
2023-01-02T11:50:16.314Z,55
2023-01-02T11:52:47.223Z,53
2023-01-02T11:55:17.539Z,60
2023-01-02T11:57:48.378Z,54
2023-01-02T12:00:18.626Z,59
2023-01-02T12:02:48.931Z,56
2023-01-02T12:05:19.110Z,64
2023-01-02T12:07:49.445Z,69
2023-01-02T12:10:19.736Z,61
2023-01-02T12:12:50.587Z,65
2023-01-02T12:15:20.607Z,56
2023-01-02T12:17:50.726Z,64
2023-01-02T12:20:21.124Z,69
2023-01-02T12:22:51.394Z,64
2023-01-02T12:25:21.650Z,60
2023-01-02T12:27:51.795Z,55
2023-01-02T12:30:22.799Z,52
2023-01-02T12:32:52.961Z,52
2023-01-02T12:35:23.213Z,53
2023-01-02T12:37:54.141Z,52
2023-01-02T12:40:24.911Z,56
2023-01-02T12:42:55.060Z,56
2023-01-02T12:45:25.476Z,60
2023-01-02T12:47:55.723Z,56
2023-01-02T12:50:25.960Z,56
2023-01-02T12:52:56.218Z,55
2023-01-02T12:55:27.117Z,58
2023-01-02T12:57:57.336Z,69
2023-01-02T13:00:27.221Z,93
2023-01-02T13:02:57.822Z,94
2023-01-02T13:05:28.511Z,119
2023-01-02T13:07:58.701Z,132
2023-01-02T13:10:28.850Z,132
2023-01-02T13:12:58.986Z,133
2023-01-02T13:15:28.911Z,136
2023-01-02T13:17:58.978Z,136
2023-01-02T13:20:29.210Z,137
2023-01-02T13:22:59.437Z,140
2023-01-02T13:25:29.715Z,132
2023-01-02T13:27:59.748Z,136
2023-01-02T13:30:30.023Z,144
2023-01-02T13:33:00.203Z,136
2023-01-02T13:35:30.328Z,136
2023-01-02T13:38:00.306Z,140
2023-01-02T13:40:31.105Z,140
2023-01-02T13:43:01.216Z,134
2023-01-02T13:45:31.655Z,146
2023-01-02T13:48:01.695Z,156
2023-01-02T13:50:32.417Z,173
2023-01-02T13:53:02.430Z,184
2023-01-02T13:55:32.632Z,177
2023-01-02T13:58:03.412Z,174
2023-01-02T14:00:33.555Z,162
2023-01-02T14:03:03.947Z,160
2023-01-02T14:05:33.725Z,155
2023-01-02T14:08:04.307Z,142
2023-01-02T14:10:34.325Z,152
2023-01-02T14:13:07.312Z,150
2023-01-02T14:15:37.434Z,146
2023-01-02T14:18:08.397Z,168
2023-01-02T14:20:38.006Z,170
2023-01-02T14:23:07.587Z,179
2023-01-02T14:25:37.729Z,191
2023-01-02T14:28:07.815Z,180
2023-01-02T14:30:37.943Z,160
2023-01-02T14:33:08.026Z,146
2023-01-02T14:35:39.655Z,136
2023-01-02T14:38:10.424Z,139
2023-01-02T14:40:40.363Z,144
2023-01-02T14:43:11.117Z,161
2023-01-02T14:45:41.221Z,154
2023-01-02T14:48:11.374Z,130
2023-01-02T14:50:41.579Z,130
2023-01-02T14:53:11.645Z,140
2023-01-02T14:55:42.589Z,136
2023-01-02T14:58:12.631Z,116
2023-01-02T15:00:42.850Z,122
2023-01-02T15:03:13.341Z,124
2023-01-02T15:05:43.310Z,122
2023-01-02T15:08:13.493Z,130
2023-01-02T15:10:43.436Z,135
2023-01-02T15:13:14.365Z,131
2023-01-02T15:15:44.592Z,120
2023-01-02T15:18:14.934Z,110
2023-01-02T15:20:44.888Z,116
2023-01-02T15:23:15.135Z,116
2023-01-02T15:25:45.121Z,130
2023-01-02T15:28:15.842Z,143
2023-01-02T15:30:46.530Z,141
2023-01-02T15:33:16.629Z,140
2023-01-02T15:35:46.815Z,138
2023-01-02T15:38:17.115Z,129
2023-01-02T15:40:47.275Z,117
2023-01-02T15:43:18.104Z,123
2023-01-02T15:45:48.175Z,122
2023-01-02T15:48:19.033Z,127
2023-01-02T15:50:49.273Z,124
2023-01-02T15:53:20.141Z,120
2023-01-02T15:55:50.255Z,143
2023-01-02T15:58:21.081Z,129
2023-01-02T16:00:51.492Z,130
2023-01-02T16:03:23.345Z,117
2023-01-02T16:05:53.108Z,130
2023-01-02T16:08:23.977Z,123
2023-01-02T16:10:54.114Z,128
2023-01-02T16:13:24.329Z,136
2023-01-02T16:16:15.296Z,143
2023-01-02T16:18:24.633Z,152
2023-01-02T16:20:54.755Z,156
2023-01-02T16:23:24.663Z,162
2023-01-02T16:25:54.406Z,169
2023-01-02T16:28:34.434Z,157
2023-01-02T16:30:55.289Z,174
2023-01-02T16:33:25.291Z,183
2023-01-02T16:36:00.476Z,181
2023-01-02T16:38:26.159Z,171
2023-01-02T16:40:59.544Z,176
2023-01-02T16:43:26.566Z,171
2023-01-02T16:45:57.606Z,177
2023-01-02T16:48:28.266Z,180
2023-01-02T16:50:58.393Z,178
2023-01-02T16:53:29.329Z,182
2023-01-02T16:55:59.375Z,187
2023-01-02T16:58:29.518Z,201
2023-01-02T17:01:00.415Z,201
2023-01-02T17:03:31.830Z,206
2023-01-02T17:06:02.989Z,200
2023-01-02T17:08:32.196Z,204
2023-01-02T17:11:02.254Z,208
2023-01-02T17:13:33.049Z,196
2023-01-02T17:16:03.271Z,202
2023-01-02T17:18:33.960Z,190
2023-01-02T17:21:04.811Z,170
2023-01-02T17:23:35.081Z,163
2023-01-02T17:26:05.433Z,156
2023-01-02T17:28:35.499Z,177
2023-01-02T17:31:05.665Z,171
2023-01-02T17:33:35.813Z,166
2023-01-02T17:36:06.530Z,162
2023-01-02T17:38:36.645Z,147
2023-01-02T17:41:06.930Z,156
2023-01-02T17:43:37.063Z,159
2023-01-02T17:46:22.507Z,192
2023-01-02T17:48:38.081Z,187
2023-01-02T17:51:08.918Z,189
2023-01-02T17:53:39.168Z,182
2023-01-02T17:56:20.247Z,187
2023-01-02T17:58:39.455Z,188
2023-01-02T18:01:09.685Z,187
2023-01-02T18:03:39.922Z,178
2023-01-02T18:06:10.134Z,183
2023-01-02T18:08:40.275Z,176
2023-01-02T18:11:10.230Z,181
2023-01-02T18:13:40.397Z,183
2023-01-02T18:16:11.296Z,191
2023-01-02T18:18:42.058Z,188
2023-01-02T18:21:12.327Z,200
2023-01-02T18:23:42.977Z,203
2023-01-02T18:26:13.017Z,195
2023-01-02T18:28:43.222Z,198
2023-01-02T18:31:13.545Z,207
2023-01-02T18:33:45.228Z,212
2023-01-02T18:36:15.373Z,200
2023-01-02T18:38:45.361Z,198
2023-01-02T18:41:15.572Z,205
2023-01-02T18:43:45.988Z,222
2023-01-02T18:46:16.054Z,218
2023-01-02T18:48:46.210Z,224
2023-01-02T18:51:16.280Z,211
2023-01-02T18:53:46.450Z,193
2023-01-02T18:56:16.676Z,195
2023-01-02T18:58:47.524Z,193
2023-01-02T19:01:17.864Z,208
2023-01-02T19:03:47.985Z,185
2023-01-02T19:06:21.248Z,192
2023-01-02T19:08:51.272Z,192
2023-01-02T19:11:21.345Z,189
2023-01-02T19:13:56.870Z,185
2023-01-02T19:16:22.400Z,191
2023-01-02T19:18:55.622Z,177
2023-01-02T19:21:25.779Z,173
2023-01-02T19:23:56.438Z,180
2023-01-02T19:26:26.633Z,176
2023-01-02T19:28:56.498Z,184
2023-01-02T19:31:26.664Z,188
2023-01-02T19:33:56.746Z,172
2023-01-02T19:36:26.884Z,159
2023-01-02T19:38:57.082Z,167
2023-01-02T19:41:27.557Z,164
2023-01-02T19:43:57.591Z,166
2023-01-02T19:46:27.663Z,163
2023-01-02T19:48:57.615Z,158
2023-01-02T19:51:27.932Z,164
2023-01-02T19:54:03.683Z,174
2023-01-02T19:56:28.119Z,184
2023-01-02T19:58:58.225Z,187
2023-01-02T20:01:28.209Z,177
2023-01-02T20:03:59.010Z,174
2023-01-02T20:06:29.340Z,171
2023-01-02T20:08:59.539Z,184
2023-01-02T20:11:29.529Z,198
2023-01-02T20:13:59.588Z,190
2023-01-02T20:16:30.422Z,207
2023-01-02T20:19:00.454Z,192
2023-01-02T20:21:30.774Z,173
2023-01-02T20:24:00.896Z,172
2023-01-02T20:26:31.098Z,165
2023-01-02T20:29:00.769Z,170
2023-01-02T20:31:30.277Z,170
2023-01-02T20:34:00.313Z,172
2023-01-02T20:36:31.786Z,170
2023-01-02T20:39:02.277Z,184
2023-01-02T20:41:31.765Z,196
2023-01-02T20:44:02.438Z,189
2023-01-02T20:46:32.187Z,195
2023-01-02T20:49:02.437Z,200
2023-01-02T20:51:32.646Z,197
2023-01-02T20:54:03.465Z,182
2023-01-02T20:56:34.107Z,180
2023-01-02T20:59:04.326Z,183
2023-01-02T21:01:34.504Z,180
2023-01-02T21:04:04.674Z,184
2023-01-02T21:06:35.440Z,185
2023-01-02T21:09:06.117Z,175
2023-01-02T21:11:36.048Z,184
2023-01-02T21:14:06.302Z,196
2023-01-02T21:16:36.478Z,183
2023-01-02T21:19:06.807Z,183
2023-01-02T21:21:37.075Z,184
2023-01-02T21:24:06.925Z,195
2023-01-02T21:26:37.178Z,186
2023-01-02T21:29:07.941Z,173
2023-01-02T21:31:38.041Z,174
2023-01-02T21:34:08.829Z,170
2023-01-02T21:36:38.768Z,166
2023-01-02T21:39:09.555Z,159
2023-01-02T21:41:40.420Z,155
2023-01-02T21:44:10.500Z,161
2023-01-02T21:46:41.272Z,147
2023-01-02T21:49:11.940Z,137
2023-01-02T21:51:42.130Z,140
2023-01-02T21:54:12.190Z,153
2023-01-02T21:56:42.394Z,162
2023-01-02T21:59:12.617Z,186
2023-01-02T22:01:42.760Z,170
2023-01-02T22:04:12.858Z,180
2023-01-02T22:07:04.614Z,149
2023-01-02T22:09:13.527Z,155
2023-01-02T22:11:43.713Z,152
2023-01-02T22:14:13.993Z,164
2023-01-02T22:16:44.308Z,163
2023-01-02T22:19:14.514Z,166
2023-01-02T22:21:44.778Z,169
2023-01-02T22:24:14.994Z,172
2023-01-02T22:26:45.204Z,181
2023-01-02T22:29:15.289Z,170
2023-01-02T22:31:45.484Z,169
2023-01-02T22:34:15.623Z,150
2023-01-02T22:36:45.857Z,139
2023-01-02T22:39:27.849Z,140
2023-01-02T22:41:46.177Z,145
2023-01-02T22:44:16.354Z,154
2023-01-02T22:46:47.201Z,154
2023-01-02T22:49:17.376Z,152
2023-01-02T22:52:06.330Z,157
2023-01-02T22:54:17.766Z,146
2023-01-02T22:56:48.030Z,137
2023-01-02T22:59:18.014Z,143
2023-01-02T23:01:48.800Z,150
2023-01-02T23:04:18.868Z,153
2023-01-02T23:07:13.950Z,148
2023-01-02T23:09:19.606Z,152
2023-01-02T23:11:50.287Z,155
2023-01-02T23:14:20.926Z,140
2023-01-02T23:16:51.258Z,140
2023-01-02T23:19:21.352Z,144
2023-01-02T23:21:52.124Z,153
2023-01-02T23:24:22.283Z,150
2023-01-02T23:26:52.331Z,154
2023-01-02T23:29:22.504Z,135
2023-01-02T23:31:52.693Z,121
2023-01-02T23:34:22.842Z,137
2023-01-02T23:36:53.003Z,127
2023-01-02T23:39:23.234Z,132
2023-01-02T23:41:53.378Z,144
2023-01-02T23:44:23.626Z,148
2023-01-02T23:46:53.786Z,151
2023-01-02T23:49:23.993Z,174
2023-01-02T23:51:54.182Z,177
2023-01-02T23:54:24.320Z,166
2023-01-02T23:56:54.353Z,168
2023-01-02T23:59:24.453Z,166
